Time;durP1;ratioP1;P1;durP2;ratioP2;P2;SDS_P1;SDS_P2;PMS_P1;PMS_P2;Temp;Humidity;BMP_temperature;BMP_pressure;BME280_temperature;BME280_humidity;BME280_pressure;Samples;Min_cycle;Max_cycle;Signal;HPM_P1;HPM_P2
2021/06/13 00:00:37;;;;;;;15.10;5.63;;;15.70;99.90;;;;;;5035555;28;20175;-84
2021/06/13 00:03:02;;;;;;;10.05;5.43;;;15.60;99.90;;;;;;5035738;28;20172;-84
2021/06/13 00:05:28;;;;;;;7.00;4.85;;;15.50;99.90;;;;;;5033837;28;20210;-84
2021/06/13 00:07:54;;;;;;;9.30;5.47;;;15.30;99.90;;;;;;5034612;28;20178;-84
2021/06/13 00:10:20;;;;;;;8.27;5.63;;;15.40;99.90;;;;;;5050877;28;20203;-84
2021/06/13 00:12:46;;;;;;;8.93;6.40;;;15.30;99.90;;;;;;5053621;28;20623;-84
2021/06/13 00:15:18;;;;;;;8.25;5.45;;;15.30;99.90;;;;;;5053321;28;20199;-84
2021/06/13 00:17:44;;;;;;;17.00;6.80;;;15.20;99.90;;;;;;5053264;28;20175;-84
2021/06/13 00:20:21;;;;;;;13.48;5.80;;;15.20;99.90;;;;;;5054572;28;20170;-84
2021/06/13 00:22:47;;;;;;;11.38;6.55;;;15.20;99.90;;;;;;5051512;28;20175;-83
2021/06/13 00:25:13;;;;;;;9.38;7.10;;;15.20;99.90;;;;;;5054421;28;20167;-84
2021/06/13 00:27:40;;;;;;;10.15;7.55;;;15.10;99.90;;;;;;5053107;28;20608;-83
2021/06/13 00:30:08;;;;;;;11.70;6.70;;;15.00;99.90;;;;;;5048004;28;20192;-84
2021/06/13 00:32:35;;;;;;;14.23;6.03;;;14.90;99.90;;;;;;5040928;28;20168;-84
2021/06/13 00:35:00;;;;;;;9.35;6.13;;;15.00;99.90;;;;;;5053102;28;20545;-83
2021/06/13 00:37:26;;;;;;;9.57;6.72;;;15.00;99.90;;;;;;5054187;28;20163;-83
2021/06/13 00:39:52;;;;;;;13.60;6.85;;;14.90;99.90;;;;;;5053865;28;20167;-84
2021/06/13 00:42:19;;;;;;;10.00;5.95;;;14.80;99.90;;;;;;5069106;28;20171;-83
2021/06/13 00:44:45;;;;;;;7.72;5.85;;;14.80;99.90;;;;;;5050832;28;20241;-84
2021/06/13 00:47:11;;;;;;;9.32;6.65;;;14.70;99.90;;;;;;5053029;28;20611;-83
2021/06/13 00:49:36;;;;;;;9.18;7.00;;;14.70;99.90;;;;;;5052897;28;20179;-83
2021/06/13 00:52:02;;;;;;;12.90;7.30;;;14.70;99.90;;;;;;5054025;28;20159;-83
2021/06/13 00:54:28;;;;;;;10.68;6.97;;;14.60;99.90;;;;;;5050370;28;20166;-84
2021/06/13 00:56:55;;;;;;;11.13;7.15;;;14.60;99.90;;;;;;5069085;28;20171;-84
2021/06/13 00:59:21;;;;;;;8.35;6.85;;;14.70;99.90;;;;;;5052646;28;20172;-83
2021/06/13 01:01:46;;;;;;;8.80;7.32;;;14.60;99.90;;;;;;5033387;28;20176;-84
2021/06/13 01:04:12;;;;;;;9.77;6.95;;;14.50;99.90;;;;;;5033669;28;20160;-84
2021/06/13 01:06:51;;;;;;;9.13;6.70;;;14.40;99.90;;;;;;5032553;28;20191;-84
2021/06/13 01:09:18;;;;;;;8.40;6.22;;;14.50;99.90;;;;;;5033736;28;20163;-84
2021/06/13 01:11:59;;;;;;;9.55;7.38;;;14.50;99.90;;;;;;5049332;28;20262;-84
2021/06/13 01:14:37;;;;;;;9.95;7.00;;;14.40;99.90;;;;;;5033382;28;20265;-83
2021/06/13 01:17:28;;;;;;;14.43;7.82;;;14.40;99.90;;;;;;5012902;28;20709;-84
2021/06/13 01:20:19;;;;;;;7.85;7.03;;;14.40;99.90;;;;;;5045405;28;20629;-84
2021/06/13 01:23:22;;;;;;;17.42;8.05;;;14.40;99.90;;;;;;5029048;28;20293;-84
2021/06/13 01:25:59;;;;;;;17.05;7.63;;;14.30;99.90;;;;;;5034302;28;20269;-84
2021/06/13 01:28:50;;;;;;;12.40;8.82;;;14.30;99.90;;;;;;5033652;28;20174;-83
2021/06/13 01:31:18;;;;;;;10.02;7.35;;;14.30;99.90;;;;;;5029511;28;20632;-83
2021/06/13 01:33:47;;;;;;;11.80;7.10;;;14.40;99.90;;;;;;5033319;28;20609;-84
2021/06/13 01:36:13;;;;;;;9.57;7.95;;;14.40;99.90;;;;;;5039429;28;20166;-84
2021/06/13 01:38:40;;;;;;;10.43;7.72;;;14.30;99.90;;;;;;5053222;28;20163;-83
2021/06/13 01:41:10;;;;;;;16.63;7.82;;;14.30;99.90;;;;;;5053231;28;20162;-84
2021/06/13 01:43:37;;;;;;;12.80;7.40;;;14.30;99.90;;;;;;5053527;28;20665;-84
2021/06/13 01:46:05;;;;;;;15.85;7.63;;;14.30;99.90;;;;;;5050242;28;20207;-83
2021/06/13 01:48:32;;;;;;;10.10;8.13;;;14.30;99.90;;;;;;5053377;28;20177;-84
2021/06/13 01:51:01;;;;;;;12.48;8.05;;;14.20;99.90;;;;;;5051436;28;20187;-84
2021/06/13 01:53:29;;;;;;;13.20;7.55;;;14.20;99.90;;;;;;5033382;28;20161;-83
2021/06/13 01:55:56;;;;;;;18.70;8.60;;;14.10;99.90;;;;;;5032022;28;20217;-84
2021/06/13 01:58:22;;;;;;;9.95;6.80;;;14.20;99.90;;;;;;5036159;28;20250;-84
2021/06/13 02:00:50;;;;;;;10.88;8.07;;;14.10;99.90;;;;;;5033327;28;20278;-84
2021/06/13 02:03:17;;;;;;;13.68;6.60;;;14.00;99.90;;;;;;5032954;28;20175;-83
2021/06/13 02:05:46;;;;;;;7.25;6.40;;;14.00;99.90;;;;;;5037055;28;20210;-83
2021/06/13 02:08:13;;;;;;;7.78;7.05;;;14.00;99.90;;;;;;5051564;28;20226;-84
2021/06/13 02:10:39;;;;;;;10.95;6.95;;;13.80;99.90;;;;;;5051914;28;20159;-82
2021/06/13 02:13:06;;;;;;;11.85;6.60;;;13.90;99.90;;;;;;5053074;28;20164;-84
2021/06/13 02:15:35;;;;;;;16.85;8.30;;;13.90;99.90;;;;;;5051834;28;20502;-84
2021/06/13 02:18:03;;;;;;;9.95;8.45;;;13.70;99.90;;;;;;5067630;28;20171;-84
2021/06/13 02:20:34;;;;;;;16.98;9.13;;;13.70;99.90;;;;;;5038124;28;20229;-83
2021/06/13 02:23:00;;;;;;;11.82;8.40;;;13.80;99.90;;;;;;5035138;28;20624;-83
2021/06/13 02:25:26;;;;;;;14.18;7.60;;;13.70;99.90;;;;;;5032844;28;20200;-84
2021/06/13 02:27:57;;;;;;;16.25;8.52;;;13.70;99.90;;;;;;5032941;28;20171;-83
2021/06/13 02:30:25;;;;;;;13.75;8.27;;;13.60;99.90;;;;;;5036658;28;20223;-83
2021/06/13 02:32:51;;;;;;;9.10;8.30;;;13.70;99.90;;;;;;5033340;28;20167;-84
2021/06/13 02:35:17;;;;;;;10.40;8.23;;;13.70;99.90;;;;;;5052486;28;20180;-84
2021/06/13 02:37:45;;;;;;;13.30;9.07;;;13.70;99.90;;;;;;5056650;28;20281;-83
2021/06/13 02:40:13;;;;;;;17.23;8.77;;;13.60;99.90;;;;;;5070051;28;20167;-84
2021/06/13 02:42:39;;;;;;;10.43;9.30;;;13.60;99.90;;;;;;5071972;28;20172;-84
2021/06/13 02:45:16;;;;;;;15.23;8.70;;;13.70;99.90;;;;;;5056075;28;20194;-83
2021/06/13 02:47:41;;;;;;;11.75;9.10;;;13.60;99.90;;;;;;5056581;28;20181;-84
2021/06/13 02:50:11;;;;;;;10.82;8.23;;;13.70;99.90;;;;;;5046367;28;20605;-83
2021/06/13 02:52:53;;;;;;;19.98;8.95;;;13.50;99.90;;;;;;5039012;28;20165;-84
2021/06/13 02:55:21;;;;;;;21.58;9.30;;;13.50;99.90;;;;;;5035001;28;20527;-84
2021/06/13 02:58:22;;;;;;;10.48;8.60;;;13.50;99.90;;;;;;5036208;28;20214;-84
2021/06/13 03:00:51;;;;;;;12.82;8.82;;;13.50;99.90;;;;;;5035319;28;20180;-84
2021/06/13 03:03:21;;;;;;;12.13;9.32;;;13.50;99.90;;;;;;5036203;28;20246;-83
2021/06/13 03:05:47;;;;;;;18.48;10.75;;;13.30;99.90;;;;;;5039946;28;20187;-84
2021/06/13 03:08:14;;;;;;;16.48;9.30;;;13.30;99.90;;;;;;5056142;28;20174;-83
2021/06/13 03:10:41;;;;;;;12.82;9.38;;;13.30;99.90;;;;;;5050818;28;20265;-84
2021/06/13 03:13:07;;;;;;;10.95;9.60;;;13.30;99.90;;;;;;5037182;28;20168;-83
2021/06/13 03:15:33;;;;;;;12.65;9.48;;;13.40;99.90;;;;;;5035856;28;20180;-84
2021/06/13 03:18:00;;;;;;;14.52;9.48;;;13.40;99.90;;;;;;5035949;28;20160;-83
2021/06/13 03:20:27;;;;;;;14.13;9.00;;;13.40;99.90;;;;;;5034539;28;20690;-84
2021/06/13 03:22:55;;;;;;;15.90;8.55;;;13.30;99.90;;;;;;5035604;28;20209;-84
2021/06/13 03:25:22;;;;;;;11.05;8.75;;;13.30;99.90;;;;;;5035804;28;20687;-83
2021/06/13 03:27:48;;;;;;;17.27;8.98;;;13.30;99.90;;;;;;5034118;28;20226;-83
2021/06/13 03:30:15;;;;;;;13.13;8.55;;;13.30;99.90;;;;;;5035630;28;20180;-84
2021/06/13 03:32:41;;;;;;;13.27;9.13;;;13.30;99.90;;;;;;5036762;28;20160;-84
2021/06/13 03:35:09;;;;;;;10.07;7.25;;;13.30;99.90;;;;;;5035420;28;20176;-84
2021/06/13 03:37:36;;;;;;;13.43;7.65;;;13.30;99.90;;;;;;5053553;28;20175;-84
2021/06/13 03:40:04;;;;;;;16.25;8.43;;;13.30;99.90;;;;;;5042324;28;20176;-84
2021/06/13 03:42:30;;;;;;;9.75;8.80;;;13.30;99.90;;;;;;5035038;28;20172;-84
2021/06/13 03:44:58;;;;;;;11.15;9.57;;;13.30;99.90;;;;;;5035326;28;20227;-83
2021/06/13 03:47:24;;;;;;;13.65;8.45;;;13.30;99.90;;;;;;5034091;28;20633;-84
2021/06/13 03:49:51;;;;;;;15.90;9.60;;;13.30;99.90;;;;;;5035024;28;20171;-83
2021/06/13 03:52:18;;;;;;;9.30;8.52;;;13.30;99.90;;;;;;5035326;28;20322;-84
2021/06/13 03:54:45;;;;;;;10.02;9.05;;;13.30;99.90;;;;;;5036454;28;20250;-83
2021/06/13 03:57:11;;;;;;;19.55;11.60;;;13.20;99.90;;;;;;5034970;28;20162;-83
2021/06/13 03:59:38;;;;;;;14.07;10.38;;;13.40;99.90;;;;;;5033924;28;20174;-84
2021/06/13 04:02:06;;;;;;;11.65;9.80;;;13.30;99.90;;;;;;5034877;28;20164;-84
2021/06/13 04:04:52;;;;;;;14.57;9.90;;;13.30;99.90;;;;;;5036532;28;20238;-83
2021/06/13 04:07:19;;;;;;;9.93;8.95;;;13.40;99.90;;;;;;5055009;28;20168;-84
2021/06/13 04:09:46;;;;;;;12.10;9.10;;;13.40;99.90;;;;;;5045272;28;20622;-83
2021/06/13 04:12:18;;;;;;;12.60;8.73;;;13.40;99.90;;;;;;5033327;28;20553;-83
2021/06/13 04:14:45;;;;;;;18.83;9.52;;;13.40;99.90;;;;;;5034515;28;20168;-82
2021/06/13 04:17:13;;;;;;;13.43;10.45;;;13.50;99.90;;;;;;5035428;28;20171;-83
2021/06/13 04:19:40;;;;;;;15.82;10.02;;;13.60;99.90;;;;;;5034846;28;20502;-83
2021/06/13 04:22:11;;;;;;;16.98;10.63;;;13.60;99.90;;;;;;5033532;28;20160;-83
2021/06/13 04:24:37;;;;;;;16.85;12.98;;;13.70;99.90;;;;;;5034387;28;20164;-83
2021/06/13 04:27:04;;;;;;;14.73;11.75;;;13.70;99.90;;;;;;5044682;28;20171;-83
2021/06/13 04:29:30;;;;;;;15.57;11.35;;;13.70;99.90;;;;;;5054511;28;20191;-84
2021/06/13 04:31:55;;;;;;;9.82;8.38;;;13.80;99.90;;;;;;5054803;28;20213;-83
2021/06/13 04:34:21;;;;;;;9.18;7.03;;;13.90;99.90;;;;;;5052000;28;20174;-84
2021/06/13 04:36:46;;;;;;;17.08;9.60;;;14.10;99.90;;;;;;5034328;28;20164;-83
2021/06/13 04:39:12;;;;;;;11.45;8.68;;;14.80;99.90;;;;;;5034320;28;20175;-83
2021/06/13 04:41:38;;;;;;;10.68;7.93;;;15.70;99.90;;;;;;5049709;28;20183;-83
2021/06/13 04:44:04;;;;;;;15.38;8.07;;;16.30;99.90;;;;;;5049457;28;20172;-83
2021/06/13 04:46:31;;;;;;;7.90;7.03;;;16.90;99.90;;;;;;5049474;28;20195;-85
2021/06/13 04:48:57;;;;;;;6.57;5.85;;;18.00;99.90;;;;;;5065392;28;20163;-83
2021/06/13 04:51:25;;;;;;;16.77;6.30;;;19.30;99.90;;;;;;5054124;28;20233;-84
2021/06/13 04:53:57;;;;;;;7.57;6.40;;;20.50;99.90;;;;;;5053868;28;20642;-84
2021/06/13 04:56:46;;;;;;;13.07;5.57;;;21.50;99.90;;;;;;5069063;28;20250;-84
2021/06/13 04:59:11;;;;;;;5.97;4.28;;;22.30;99.90;;;;;;5051304;28;20164;-85
2021/06/13 05:01:41;;;;;;;9.30;3.38;;;23.00;99.90;;;;;;5068249;28;20568;-84
2021/06/13 05:04:07;;;;;;;5.00;3.20;;;23.70;99.90;;;;;;5053698;28;20186;-84
2021/06/13 05:06:33;;;;;;;8.73;3.70;;;24.40;99.90;;;;;;5052208;28;20207;-85
2021/06/13 05:09:00;;;;;;;7.15;3.67;;;24.30;99.90;;;;;;5045917;28;20260;-84
2021/06/13 05:11:25;;;;;;;6.68;3.78;;;24.00;99.90;;;;;;5032562;28;20180;-85
2021/06/13 05:13:51;;;;;;;6.18;3.28;;;24.90;99.90;;;;;;5032541;28;20580;-85
2021/06/13 05:16:17;;;;;;;9.25;3.45;;;25.20;99.90;;;;;;5033728;28;20163;-85
2021/06/13 05:18:43;;;;;;;7.30;3.83;;;25.70;99.90;;;;;;5032487;28;20616;-85
2021/06/13 05:21:08;;;;;;;10.05;3.65;;;25.00;99.90;;;;;;5034502;28;20620;-85
2021/06/13 05:23:34;;;;;;;5.75;3.67;;;24.60;99.90;;;;;;5033297;28;20187;-84
2021/06/13 05:26:00;;;;;;;12.57;3.65;;;25.40;99.90;;;;;;5032317;28;20199;-84
2021/06/13 05:28:27;;;;;;;8.68;3.83;;;26.00;99.90;;;;;;5032392;28;20175;-85
2021/06/13 05:30:53;;;;;;;9.70;3.75;;;26.40;99.90;;;;;;5041988;28;20190;-84
2021/06/13 05:33:19;;;;;;;5.72;3.30;;;27.20;99.90;;;;;;5053347;28;20507;-84
2021/06/13 05:35:45;;;;;;;9.10;4.00;;;27.90;99.90;;;;;;5053164;28;20216;-85
2021/06/13 05:38:11;;;;;;;8.45;4.15;;;28.60;98.10;;;;;;5068516;28;20577;-84
2021/06/13 05:40:38;;;;;;;6.30;3.75;;;29.20;96.70;;;;;;5036994;28;20175;-84
2021/06/13 05:43:06;;;;;;;7.53;3.85;;;30.10;95.00;;;;;;5033374;28;20194;-85
2021/06/13 05:45:32;;;;;;;11.27;3.67;;;30.10;94.00;;;;;;5032022;28;20555;-85
2021/06/13 05:47:58;;;;;;;5.00;3.40;;;30.80;93.10;;;;;;5031878;28;20186;-83
2021/06/13 05:50:25;;;;;;;6.32;3.33;;;30.30;92.10;;;;;;5033225;28;20628;-85
2021/06/13 05:52:51;;;;;;;6.30;3.63;;;29.90;91.70;;;;;;5034650;28;20167;-84
2021/06/13 05:55:18;;;;;;;6.22;3.85;;;30.60;91.90;;;;;;5033053;28;20179;-84
2021/06/13 05:57:45;;;;;;;9.43;3.60;;;29.70;91.50;;;;;;5031953;28;20171;-84
2021/06/13 06:00:17;;;;;;;4.55;3.30;;;30.60;91.60;;;;;;5048644;28;20172;-85
2021/06/13 06:02:43;;;;;;;10.40;3.60;;;31.30;88.00;;;;;;5034005;28;20156;-85
2021/06/13 06:05:10;;;;;;;6.00;3.45;;;29.50;90.30;;;;;;5032848;28;20191;-84
2021/06/13 06:07:36;;;;;;;8.27;3.85;;;28.50;91.10;;;;;;5033295;28;20160;-84
2021/06/13 06:10:03;;;;;;;5.40;3.67;;;28.00;91.40;;;;;;5036899;28;20250;-84
2021/06/13 06:12:29;;;;;;;7.13;3.67;;;29.30;91.70;;;;;;5035884;28;20616;-84
2021/06/13 06:14:54;;;;;;;9.27;4.05;;;30.50;90.50;;;;;;5056559;28;20257;-83
2021/06/13 06:17:20;;;;;;;9.07;3.45;;;31.30;90.50;;;;;;5055437;28;20163;-84
2021/06/13 06:19:46;;;;;;;7.97;3.92;;;30.30;86.50;;;;;;5036707;28;20175;-84
2021/06/13 06:22:11;;;;;;;6.00;3.53;;;29.80;87.60;;;;;;5036866;28;20168;-84
2021/06/13 06:24:37;;;;;;;6.47;3.80;;;30.50;87.80;;;;;;5036521;28;20182;-84
2021/06/13 06:27:04;;;;;;;8.13;3.20;;;29.80;86.30;;;;;;5035557;28;20186;-83
2021/06/13 06:29:30;;;;;;;7.38;3.78;;;28.60;90.20;;;;;;5068726;28;20499;-83
2021/06/13 06:31:56;;;;;;;7.90;3.45;;;29.90;90.80;;;;;;5055244;28;20167;-84
2021/06/13 06:34:22;;;;;;;5.38;3.20;;;31.30;85.60;;;;;;5054712;28;20174;-83
2021/06/13 06:36:48;;;;;;;5.35;3.33;;;32.10;85.40;;;;;;5071718;28;20225;-83
2021/06/13 06:39:14;;;;;;;4.45;3.03;;;33.10;82.20;;;;;;5055925;28;20246;-83
2021/06/13 06:41:40;;;;;;;10.75;3.95;;;34.30;80.60;;;;;;5036339;28;20172;-84
2021/06/13 06:44:06;;;;;;;6.30;2.88;;;34.00;76.50;;;;;;5036288;28;20170;-83
2021/06/13 06:46:33;;;;;;;9.35;4.00;;;33.50;77.10;;;;;;5052699;28;20252;-84
2021/06/13 06:48:59;;;;;;;4.65;2.83;;;32.90;79.40;;;;;;5055545;28;20663;-83
2021/06/13 06:51:26;;;;;;;9.90;3.40;;;34.10;75.80;;;;;;5056411;28;20245;-85
2021/06/13 06:53:53;;;;;;;5.55;3.08;;;34.70;74.00;;;;;;5071692;28;20259;-85
2021/06/13 06:56:19;;;;;;;5.45;3.38;;;35.20;71.30;;;;;;5054452;28;20173;-83
2021/06/13 06:58:44;;;;;;;7.93;3.33;;;35.90;73.80;;;;;;5071247;28;20245;-85
2021/06/13 07:01:10;;;;;;;8.13;2.97;;;36.50;70.90;;;;;;5056362;28;20567;-85
2021/06/13 07:03:36;;;;;;;7.50;3.05;;;37.40;67.80;;;;;;5055914;28;20258;-85
2021/06/13 07:06:02;;;;;;;7.50;3.35;;;38.20;65.50;;;;;;5053791;28;20639;-85
2021/06/13 07:08:27;;;;;;;8.27;3.10;;;38.40;65.40;;;;;;5036115;28;20152;-84
2021/06/13 07:10:53;;;;;;;6.07;3.00;;;37.20;64.30;;;;;;5035389;28;20178;-84
2021/06/13 07:13:19;;;;;;;8.90;3.42;;;38.00;65.20;;;;;;5036022;28;20504;-85
2021/06/13 07:15:44;;;;;;;11.15;4.55;;;38.80;65.40;;;;;;5051347;28;20266;-84
2021/06/13 07:18:10;;;;;;;9.60;3.63;;;39.10;63.00;;;;;;5048424;28;20209;-85
2021/06/13 07:20:36;;;;;;;4.60;3.42;;;38.80;61.10;;;;;;5069745;28;20167;-84
2021/06/13 07:23:02;;;;;;;11.02;3.17;;;38.40;61.60;;;;;;5071004;28;20633;-84
2021/06/13 07:25:28;;;;;;;6.18;3.63;;;39.00;62.90;;;;;;5050291;28;20530;-83
2021/06/13 07:27:54;;;;;;;5.88;3.58;;;39.40;59.30;;;;;;5036706;28;20240;-82
2021/06/13 07:30:21;;;;;;;4.35;2.80;;;38.90;58.40;;;;;;5034077;28;20179;-81
2021/06/13 07:32:47;;;;;;;5.35;3.22;;;38.40;59.80;;;;;;5035300;28;20164;-81
2021/06/13 07:35:13;;;;;;;5.65;3.28;;;38.50;59.70;;;;;;5036029;28;20185;-82
2021/06/13 07:37:40;;;;;;;4.40;3.25;;;38.80;59.90;;;;;;5035957;28;20174;-82
2021/06/13 07:40:07;;;;;;;6.63;3.33;;;39.70;58.40;;;;;;5046289;28;20164;-81
2021/06/13 07:42:33;;;;;;;7.20;3.00;;;40.50;57.30;;;;;;5053565;28;20162;-82
2021/06/13 07:44:58;;;;;;;6.22;3.25;;;41.20;57.00;;;;;;5055049;28;20588;-82
2021/06/13 07:47:25;;;;;;;9.57;3.38;;;41.40;55.60;;;;;;5053324;28;20256;-82
2021/06/13 07:49:51;;;;;;;7.88;3.20;;;41.70;56.80;;;;;;5055349;28;20155;-82
2021/06/13 07:52:17;;;;;;;4.80;2.92;;;40.40;55.10;;;;;;5054952;28;20217;-82
2021/06/13 07:54:43;;;;;;;8.82;2.97;;;39.50;56.40;;;;;;5054924;28;20247;-82
2021/06/13 07:57:08;;;;;;;6.13;3.38;;;39.20;56.70;;;;;;5053365;28;20262;-82
2021/06/13 07:59:36;;;;;;;4.75;2.78;;;40.10;56.70;;;;;;5054708;28;20159;-82
2021/06/13 08:02:03;;;;;;;4.40;3.25;;;40.90;56.00;;;;;;5054802;28;20171;-82
2021/06/13 08:04:35;;;;;;;5.22;3.15;;;40.90;53.90;;;;;;5055152;28;20166;-82
2021/06/13 08:07:02;;;;;;;7.32;2.97;;;40.80;54.90;;;;;;5057211;28;20184;-84
2021/06/13 08:09:27;;;;;;;4.13;2.47;;;41.10;55.70;;;;;;5045843;28;20609;-83
2021/06/13 08:11:53;;;;;;;7.43;3.80;;;41.90;53.90;;;;;;5054963;28;20255;-83
2021/06/13 08:14:19;;;;;;;4.40;2.78;;;41.80;55.40;;;;;;5032705;28;20171;-84
2021/06/13 08:16:45;;;;;;;4.13;2.60;;;41.50;53.20;;;;;;5034490;28;20175;-83
2021/06/13 08:19:10;;;;;;;5.55;2.42;;;41.80;55.60;;;;;;5016790;28;20205;-83
2021/06/13 08:21:36;;;;;;;4.45;2.63;;;42.10;53.90;;;;;;5033701;28;20180;-83
2021/06/13 08:24:03;;;;;;;4.97;2.80;;;42.40;54.00;;;;;;5034489;28;20664;-82
2021/06/13 08:26:30;;;;;;;7.82;2.47;;;42.60;52.50;;;;;;5034043;28;20231;-83
2021/06/13 08:28:56;;;;;;;5.30;2.92;;;42.90;53.00;;;;;;5032688;28;20163;-83
2021/06/13 08:31:22;;;;;;;4.63;2.28;;;43.50;53.50;;;;;;5032881;28;20193;-82
2021/06/13 08:33:48;;;;;;;6.28;2.25;;;44.00;51.60;;;;;;5033332;28;20172;-83
2021/06/13 08:36:15;;;;;;;10.50;2.40;;;44.80;50.30;;;;;;5029188;28;20168;-83
2021/06/13 08:38:40;;;;;;;2.38;2.00;;;45.60;50.80;;;;;;5032510;28;20195;-83
2021/06/13 08:41:06;;;;;;;4.72;2.28;;;45.90;50.20;;;;;;5032996;28;20178;-83
2021/06/13 08:43:32;;;;;;;3.75;2.17;;;46.30;47.90;;;;;;5032095;28;20210;-83
2021/06/13 08:46:00;;;;;;;4.70;2.25;;;45.50;48.40;;;;;;5037057;28;20631;-89
2021/06/13 08:48:31;;;;;;;5.10;2.20;;;45.30;48.20;;;;;;5028822;28;20160;-83
2021/06/13 08:50:58;;;;;;;3.15;2.42;;;43.90;50.50;;;;;;5033041;28;20221;-83
2021/06/13 08:53:25;;;;;;;2.63;1.90;;;43.90;50.00;;;;;;5027852;28;20172;-83
2021/06/13 08:55:51;;;;;;;3.38;1.95;;;43.10;48.50;;;;;;5030808;28;20662;-85
2021/06/13 08:58:18;;;;;;;10.27;2.55;;;42.90;52.30;;;;;;5033383;28;20175;-83
2021/06/13 09:00:44;;;;;;;3.70;1.90;;;43.80;48.70;;;;;;5033885;28;20559;-83
2021/06/13 09:03:09;;;;;;;4.00;2.35;;;44.20;49.80;;;;;;5031730;28;20179;-83
2021/06/13 09:05:35;;;;;;;2.92;2.25;;;44.70;48.10;;;;;;5032678;28;20184;-84
2021/06/13 09:08:09;;;;;;;4.25;2.35;;;45.20;47.80;;;;;;5031943;28;20621;-83
2021/06/13 09:10:37;;;;;;;6.78;2.33;;;44.90;48.50;;;;;;5034237;28;20170;-84
2021/06/13 09:13:21;;;;;;;6.97;2.75;;;44.50;48.90;;;;;;5031905;28;20175;-81
2021/06/13 09:15:52;;;;;;;5.07;2.95;;;44.20;50.30;;;;;;5031081;28;20207;-80
2021/06/13 09:18:35;;;;;;;4.05;1.95;;;42.70;49.40;;;;;;5031540;28;20278;-84
2021/06/13 09:21:01;;;;;;;3.75;1.50;;;42.90;48.60;;;;;;5031828;28;20176;-83
2021/06/13 09:23:29;;;;;;;2.05;1.52;;;43.60;48.30;;;;;;5031464;28;20176;-85
2021/06/13 09:26:17;;;;;;;4.10;1.80;;;43.40;49.70;;;;;;5032879;28;20563;-86
2021/06/13 09:28:45;;;;;;;3.13;1.65;;;42.90;48.60;;;;;;5032491;28;20174;-84
2021/06/13 09:31:23;;;;;;;10.85;2.30;;;44.10;48.10;;;;;;5031977;28;20199;-85
2021/06/13 09:33:50;;;;;;;3.13;1.98;;;44.50;48.70;;;;;;5035407;28;20191;-85
2021/06/13 09:36:23;;;;;;;5.68;2.05;;;45.20;48.40;;;;;;5031722;28;20261;-85
2021/06/13 09:38:58;;;;;;;8.80;1.85;;;45.20;49.30;;;;;;5033327;28;20253;-84
2021/06/13 09:41:24;;;;;;;3.22;2.28;;;45.60;47.60;;;;;;5032243;28;20174;-86
2021/06/13 09:43:56;;;;;;;2.65;1.60;;;45.30;47.50;;;;;;5032649;28;20258;-84
2021/06/13 09:46:24;;;;;;;5.00;1.90;;;42.70;50.20;;;;;;5031328;28;20612;-85
2021/06/13 09:48:56;;;;;;;5.13;2.05;;;42.90;49.60;;;;;;5031011;28;20201;-85
2021/06/13 09:51:24;;;;;;;5.25;2.25;;;42.90;51.10;;;;;;5033367;28;20616;-85
2021/06/13 09:53:57;;;;;;;4.10;1.60;;;43.40;49.80;;;;;;5032248;28;20258;-86
2021/06/13 09:56:22;;;;;;;2.88;1.73;;;43.90;49.40;;;;;;5032032;28;20203;-86
2021/06/13 09:58:51;;;;;;;4.15;1.83;;;44.60;49.40;;;;;;5032592;28;20179;-87
2021/06/13 10:01:17;;;;;;;2.88;1.58;;;43.10;48.50;;;;;;5030466;28;20190;-86
2021/06/13 10:03:47;;;;;;;3.22;1.63;;;43.00;49.70;;;;;;5035767;28;20269;-80
2021/06/13 10:06:13;;;;;;;4.57;1.83;;;42.40;50.60;;;;;;5032273;28;20178;-77
2021/06/13 10:08:39;;;;;;;3.22;1.85;;;42.80;51.20;;;;;;5033088;28;20648;-82
2021/06/13 10:11:06;;;;;;;3.25;1.80;;;41.40;52.70;;;;;;5032091;28;20164;-81
2021/06/13 10:13:51;;;;;;;3.50;1.85;;;41.30;51.90;;;;;;5032841;28;20254;-78
2021/06/13 10:16:22;;;;;;;2.22;1.60;;;41.20;51.90;;;;;;5031911;28;20542;-81
2021/06/13 10:18:53;;;;;;;4.57;1.73;;;40.30;51.80;;;;;;5032821;28;20205;-82
2021/06/13 10:21:19;;;;;;;4.70;2.30;;;40.30;53.20;;;;;;5031822;28;20184;-81
2021/06/13 10:23:45;;;;;;;6.38;2.28;;;40.70;51.30;;;;;;5033005;28;20166;-81
2021/06/13 10:26:12;;;;;;;3.85;1.85;;;41.70;51.20;;;;;;5032238;28;20171;-81
2021/06/13 10:28:38;;;;;;;3.83;2.00;;;40.10;53.00;;;;;;5052253;28;20163;-82
2021/06/13 10:31:04;;;;;;;2.85;1.65;;;40.50;52.70;;;;;;5043423;28;20393;-82
2021/06/13 10:33:30;;;;;;;2.50;1.83;;;41.30;52.10;;;;;;5033548;28;20167;-82
2021/06/13 10:36:00;;;;;;;3.47;1.88;;;42.10;50.50;;;;;;5033685;28;20690;-82
2021/06/13 10:38:26;;;;;;;3.35;2.00;;;42.90;51.70;;;;;;5033663;28;20164;-82
2021/06/13 10:40:51;;;;;;;4.88;2.17;;;42.60;50.30;;;;;;5052510;28;20245;-81
2021/06/13 10:43:28;;;;;;;3.67;1.63;;;42.60;53.20;;;;;;5051199;28;20237;-82
2021/06/13 10:46:04;;;;;;;3.85;2.40;;;41.70;51.30;;;;;;5031741;28;20206;-82
2021/06/13 10:48:41;;;;;;;10.23;2.40;;;39.10;52.10;;;;;;5032520;28;20159;-82
2021/06/13 10:51:30;;;;;;;5.05;1.80;;;38.40;56.30;;;;;;5032065;28;20612;-81
2021/06/13 10:54:22;;;;;;;10.32;1.83;;;40.40;54.90;;;;;;5033190;28;20175;-81
2021/06/13 10:57:11;;;;;;;3.63;1.90;;;41.60;52.70;;;;;;5036802;28;20199;-81
2021/06/13 10:59:40;;;;;;;4.38;2.10;;;42.40;51.60;;;;;;5024406;28;20179;-81
2021/06/13 11:02:11;;;;;;;4.90;2.13;;;42.20;51.60;;;;;;5034296;28;20186;-82
2021/06/13 11:05:08;;;;;;;4.22;2.53;;;41.30;51.70;;;;;;5066867;28;20231;-81
2021/06/13 11:07:38;;;;;;;3.65;2.58;;;41.60;51.60;;;;;;5036376;28;20202;-81
2021/06/13 11:10:07;;;;;;;4.00;1.85;;;42.30;50.80;;;;;;5035117;28;20179;-81
2021/06/13 11:13:00;;;;;;;8.32;2.38;;;39.80;52.10;;;;;;5035232;28;20168;-81
2021/06/13 11:15:27;;;;;;;6.20;2.22;;;39.90;53.20;;;;;;5034199;28;20204;-80
2021/06/13 11:18:05;;;;;;;7.55;2.25;;;41.20;52.80;;;;;;5038470;28;20593;-81
2021/06/13 11:20:46;;;;;;;7.03;1.95;;;41.80;51.80;;;;;;5054850;28;20175;-80
2021/06/13 11:23:21;;;;;;;3.65;2.30;;;40.60;53.90;;;;;;5038101;28;20686;-79
2021/06/13 11:25:47;;;;;;;5.00;1.83;;;41.60;53.40;;;;;;5034725;28;20171;-81
2021/06/13 11:28:27;;;;;;;5.35;2.83;;;42.80;52.30;;;;;;5035749;28;20176;-81
2021/06/13 11:30:57;;;;;;;16.23;2.13;;;41.90;52.50;;;;;;5033798;28;20198;-81
2021/06/13 11:33:37;;;;;;;3.95;2.28;;;41.20;53.40;;;;;;5035626;28;20156;-82
2021/06/13 11:36:31;;;;;;;6.53;2.15;;;39.50;53.10;;;;;;5033062;28;20192;-81
2021/06/13 11:39:03;;;;;;;6.50;2.15;;;37.30;55.50;;;;;;5035529;28;20159;-82
2021/06/13 11:41:31;;;;;;;2.67;1.80;;;38.40;56.00;;;;;;5036449;28;20176;-82
2021/06/13 11:44:00;;;;;;;3.42;1.83;;;39.80;53.90;;;;;;5067419;28;20155;-82
2021/06/13 11:46:33;;;;;;;3.85;2.10;;;40.50;52.90;;;;;;5034340;28;20184;-81
2021/06/13 11:49:02;;;;;;;4.35;2.05;;;38.20;53.80;;;;;;5066508;28;20655;-81
2021/06/13 11:51:28;;;;;;;4.85;2.10;;;37.20;56.30;;;;;;5036220;28;20214;-80
2021/06/13 11:54:18;;;;;;;4.68;1.98;;;37.80;56.90;;;;;;5032448;28;20210;-82
2021/06/13 11:56:44;;;;;;;3.67;2.00;;;38.60;55.70;;;;;;5036623;28;20211;-82
2021/06/13 11:59:09;;;;;;;7.00;2.33;;;36.50;57.10;;;;;;5035072;28;20163;-80
2021/06/13 12:01:37;;;;;;;5.88;2.15;;;35.60;57.10;;;;;;5042864;28;20313;-81
2021/06/13 12:04:04;;;;;;;4.40;1.80;;;36.70;58.10;;;;;;5053284;28;20170;-81
2021/06/13 12:06:32;;;;;;;4.15;2.20;;;37.80;55.50;;;;;;5036861;28;20183;-82
2021/06/13 12:08:58;;;;;;;6.57;2.22;;;38.10;55.30;;;;;;5034717;28;20250;-82
2021/06/13 12:11:30;;;;;;;6.82;2.50;;;37.00;56.30;;;;;;5049163;28;20320;-81
2021/06/13 12:14:15;;;;;;;10.70;2.10;;;36.90;56.50;;;;;;5046661;28;20207;-82
2021/06/13 12:16:42;;;;;;;3.85;2.15;;;37.40;57.10;;;;;;5032367;28;20199;-82
2021/06/13 12:19:07;;;;;;;3.10;2.20;;;36.90;57.20;;;;;;5065670;28;20176;-82
2021/06/13 12:21:33;;;;;;;3.15;1.70;;;35.40;58.20;;;;;;5033283;28;20254;-83
2021/06/13 12:27:22;;;;;;;5.70;2.20;;;31.10;65.00;;;;;;5025164;28;20244;-82
2021/06/13 12:30:13;;;;;;;4.55;1.83;;;30.30;66.20;;;;;;5046805;28;20179;-82
2021/06/13 12:32:39;;;;;;;5.80;2.13;;;29.40;66.80;;;;;;5035565;28;20567;-82
2021/06/13 12:35:11;;;;;;;4.28;2.25;;;29.10;67.70;;;;;;5032821;28;20265;-83
2021/06/13 12:37:38;;;;;;;6.57;2.70;;;28.50;68.00;;;;;;5033545;28;20616;-82
2021/06/13 12:40:11;;;;;;;7.53;2.50;;;27.40;72.20;;;;;;5033453;28;20787;-82
2021/06/13 12:42:39;;;;;;;9.52;3.05;;;27.20;73.30;;;;;;5034165;28;20210;-81
2021/06/13 12:45:12;;;;;;;13.13;2.78;;;27.10;76.30;;;;;;5033969;28;20184;-82
2021/06/13 12:47:39;;;;;;;3.83;2.25;;;27.20;74.00;;;;;;5049667;28;20262;-81
2021/06/13 12:50:07;;;;;;;5.53;2.15;;;27.30;72.60;;;;;;5033080;28;20586;-82
2021/06/13 12:52:32;;;;;;;5.22;2.60;;;26.70;72.90;;;;;;5033971;28;20641;-82
2021/06/13 12:55:07;;;;;;;4.88;2.28;;;26.10;75.50;;;;;;5041014;28;20172;-81